Pagina principală
METAR-TAF:

METAR-TAF

Aeroporturi :

Midland, Texas, Statele Unite ale Americii

Latitudine: 32-02-11N, longitudine: 102-06-03W, elevație: 854 m

Observații meteo curente

Raportul a fost făcut în urmă cu 26 de minute, la 23:55 UTC
Vânt 17 kt de la Sud-est cu rafale de până la 25 kt
Temperatură 33°C
Umiditate 41%
Presiune 1008 hPa
Vizibilitate: 16.1 km

METAR: KMDD 182355Z AUTO 14017G25KT 10SM 33/18 A2977 RMK AO2 10362 20317 403620244

Ora: 19:21 (00:21 UTC)


TAF: lipsă

Observații și prognoze meteo pentru peste 4.000 de aeroporturi (rapoarte METAR și TAF).

Stațiile disponibile sunt reprezentate pe hartă prin puncte galbene și roșii.

Țineți indicatorul mouse-ului pe punctul dorit pentru a vedea denumirea stației.

Apoi, faceți clic pentru a vedea observațiile și prognozele meteorologice.

Pentru a schimba harta: Pentru mărire, faceți clic pe butoanele verzi cu cruce neagră; pentru micșorare, pe butonul verde cu o liniuță; pentru hărți învecinate, pe săgețile verzi.


METAR-TAF: